Time;durP1;ratioP1;P1;durP2;ratioP2;P2;SDS_P1;SDS_P2;PMS_P1;PMS_P2;Temp;Humidity;BMP_temperature;BMP_pressure;BME280_temperature;BME280_humidity;BME280_pressure;Samples;Min_cycle;Max_cycle;Signal;HPM_P1;HPM_P2
2022/08/27 00:02:08;;;;;;;1999.90;999.90;;;;;;;21.58;82.12;95128.31;5028391;28;20034;-65
2022/08/27 00:04:35;;;;;;;1999.90;999.90;;;;;;;21.57;82.56;95136.81;5030206;28;20030;-66
2022/08/27 00:07:02;;;;;;;1999.90;999.90;;;;;;;21.46;82.49;95131.31;5028827;28;20038;-66
2022/08/27 00:09:27;;;;;;;1999.90;999.90;;;;;;;21.45;82.38;95129.75;5029756;28;20394;-66
2022/08/27 00:11:54;;;;;;;1999.90;999.90;;;;;;;21.51;82.38;95131.75;5028772;28;20030;-66
2022/08/27 00:14:19;;;;;;;1999.90;999.90;;;;;;;21.69;82.13;95155.47;5028314;28;20025;-65
2022/08/27 00:16:44;;;;;;;1999.90;999.90;;;;;;;21.12;80.89;95155.69;5028636;28;20099;-66
2022/08/27 00:19:10;;;;;;;1999.90;999.90;;;;;;;20.24;83.13;95156.16;5029791;28;20064;-66
2022/08/27 00:21:36;;;;;;;1999.90;999.90;;;;;;;20.62;83.50;95157.03;5029771;28;20108;-66
2022/08/27 00:24:01;;;;;;;1999.90;999.90;;;;;;;20.70;83.03;95156.00;5029673;28;20021;-67
2022/08/27 00:26:27;;;;;;;1999.90;999.90;;;;;;;20.68;83.31;95172.59;5029905;28;20490;-66
2022/08/27 00:28:53;;;;;;;1999.90;999.90;;;;;;;20.48;81.89;95154.97;5028561;28;20032;-66
2022/08/27 00:31:18;;;;;;;1999.90;999.90;;;;;;;20.33;82.88;95150.47;5028332;28;20021;-66
2022/08/27 00:33:44;;;;;;;1999.90;999.90;;;;;;;20.47;83.11;95153.38;5027931;28;20032;-66
2022/08/27 00:36:11;;;;;;;1999.90;999.90;;;;;;;20.85;83.37;95173.16;5028233;28;20026;-66
2022/08/27 00:38:37;;;;;;;1999.90;999.90;;;;;;;21.03;83.21;95174.91;5029786;28;20030;-66
2022/08/27 00:41:05;;;;;;;1999.90;999.90;;;;;;;21.21;82.98;95180.50;5028352;28;20029;-66
2022/08/27 00:43:41;;;;;;;1999.90;999.90;;;;;;;21.11;82.70;95154.13;5029030;28;20025;-66
2022/08/27 00:46:15;;;;;;;1999.90;999.90;;;;;;;21.41;82.86;95167.59;5028397;28;20034;-66
2022/08/27 00:48:40;;;;;;;1999.90;999.90;;;;;;;21.58;83.06;95163.50;5028399;28;20058;-66
2022/08/27 00:51:05;;;;;;;1999.90;999.90;;;;;;;21.60;82.46;95146.88;5029734;28;20025;-66
2022/08/27 00:53:32;;;;;;;1999.90;999.90;;;;;;;21.66;82.26;95148.09;5027697;28;20028;-67
2022/08/27 00:56:05;;;;;;;1999.90;999.90;;;;;;;21.74;82.33;95153.19;5028248;28;20032;-67
2022/08/27 00:58:36;;;;;;;1999.90;999.90;;;;;;;21.77;82.56;95152.44;5029433;28;20079;-67
2022/08/27 01:01:04;;;;;;;1999.90;999.90;;;;;;;21.80;82.38;95153.59;5029441;28;20113;-67
2022/08/27 01:03:29;;;;;;;1999.90;999.90;;;;;;;21.82;82.21;95145.13;5027596;28;20083;-67
2022/08/27 01:05:58;;;;;;;1999.90;999.90;;;;;;;21.86;82.75;95154.06;5029281;28;20025;-67
2022/08/27 01:08:29;;;;;;;1999.90;999.90;;;;;;;21.90;82.13;95154.84;5032444;28;20583;-66
2022/08/27 01:10:57;;;;;;;1999.90;999.90;;;;;;;21.89;82.48;95147.88;5033534;28;20076;-66
2022/08/27 01:13:26;;;;;;;1999.90;999.90;;;;;;;21.93;82.34;95143.28;5033224;28;20494;-67
2022/08/27 01:15:52;;;;;;;1999.90;999.90;;;;;;;21.80;82.30;95127.34;5032100;28;20025;-67
2022/08/27 01:18:18;;;;;;;1999.90;999.90;;;;;;;21.94;82.24;95136.69;5033495;28;20029;-66
2022/08/27 01:20:59;;;;;;;1999.90;999.90;;;;;;;21.85;81.90;95130.81;5033312;28;20497;-67
2022/08/27 01:24:03;;;;;;;1999.90;999.90;;;;;;;22.02;82.18;95143.72;5031722;28;20021;-67
2022/08/27 01:26:30;;;;;;;1999.90;999.90;;;;;;;22.00;82.09;95130.53;5032862;28;20435;-66
2022/08/27 01:28:55;;;;;;;1999.90;999.90;;;;;;;22.01;81.89;95134.06;5031960;28;20109;-67
2022/08/27 01:31:21;;;;;;;1999.90;999.90;;;;;;;21.89;82.20;95124.28;5031800;28;20120;-66
2022/08/27 01:33:55;;;;;;;1999.90;999.90;;;;;;;21.94;82.31;95125.88;5031454;28;20080;-66
2022/08/27 01:36:21;;;;;;;1999.90;999.90;;;;;;;21.96;82.24;95135.19;5032846;28;20109;-66
2022/08/27 01:38:46;;;;;;;1999.90;999.90;;;;;;;22.00;82.18;95135.97;5031807;28;20108;-67
2022/08/27 01:41:12;;;;;;;1999.90;999.90;;;;;;;21.87;82.21;95140.13;5031631;28;20462;-72
2022/08/27 01:43:37;;;;;;;1999.90;999.90;;;;;;;21.71;81.73;95142.34;5031282;28;20021;-72
2022/08/27 01:46:03;;;;;;;1999.90;999.90;;;;;;;21.68;82.14;95162.81;5032899;28;20037;-71
2022/08/27 01:48:29;;;;;;;1999.90;999.90;;;;;;;21.61;82.07;95143.81;5031759;28;20029;-72
2022/08/27 01:50:55;;;;;;;1999.90;999.90;;;;;;;21.44;82.58;95122.78;5031700;28;20043;-72
2022/08/27 01:53:22;;;;;;;1999.90;999.90;;;;;;;21.57;82.62;95134.88;5032475;28;20037;-72
2022/08/27 01:55:49;;;;;;;1999.90;999.90;;;;;;;21.37;82.60;95125.41;5031390;28;20059;-72
2022/08/27 01:58:15;;;;;;;1999.90;999.90;;;;;;;21.45;83.26;95135.94;5031681;28;20049;-72
2022/08/27 02:00:44;;;;;;;1999.90;999.90;;;;;;;21.49;82.74;95138.66;5031301;28;20031;-72
2022/08/27 02:03:11;;;;;;;1999.90;999.90;;;;;;;21.27;83.00;95108.69;5030871;28;20406;-72
2022/08/27 02:05:38;;;;;;;1999.90;999.90;;;;;;;21.35;82.51;95122.31;5031646;28;20029;-73
2022/08/27 02:08:05;;;;;;;1999.90;999.90;;;;;;;21.41;82.37;95137.84;5031859;28;20079;-73
2022/08/27 02:10:34;;;;;;;1999.90;999.90;;;;;;;21.50;82.95;95146.44;5032470;28;20090;-72
2022/08/27 02:12:59;;;;;;;1999.90;999.90;;;;;;;21.24;83.28;95106.75;5032127;28;20470;-72
2022/08/27 02:15:26;;;;;;;1999.90;999.90;;;;;;;21.33;83.55;95108.38;5031083;28;20036;-72
2022/08/27 02:17:52;;;;;;;1999.90;999.90;;;;;;;21.51;83.60;95137.16;5029910;28;20470;-72
2022/08/27 02:20:19;;;;;;;1999.90;999.90;;;;;;;21.12;83.02;95131.34;5032056;28;20113;-72
2022/08/27 02:22:45;;;;;;;1999.90;999.90;;;;;;;21.07;83.94;95104.63;5029621;28;20033;-73
2022/08/27 02:25:12;;;;;;;1999.90;999.90;;;;;;;21.42;83.30;95142.09;5030205;28;20029;-73
2022/08/27 02:27:40;;;;;;;1999.90;999.90;;;;;;;21.48;84.21;95127.06;5030681;28;20512;-72
2022/08/27 02:30:07;;;;;;;1999.90;999.90;;;;;;;21.57;83.60;95125.97;5032091;28;20037;-73
2022/08/27 02:32:32;;;;;;;1999.90;999.90;;;;;;;21.60;83.05;95126.03;5031523;28;20037;-72
2022/08/27 02:34:59;;;;;;;1999.90;999.90;;;;;;;21.54;83.68;95117.44;5032024;28;20500;-72
2022/08/27 02:37:25;;;;;;;1999.90;999.90;;;;;;;21.52;82.81;95118.97;5032038;28;20042;-72
2022/08/27 02:39:50;;;;;;;1999.90;999.90;;;;;;;21.58;83.09;95122.88;5030423;28;20056;-72
2022/08/27 02:42:16;;;;;;;1999.90;999.90;;;;;;;21.38;82.67;95108.03;5031395;28;20056;-73
2022/08/27 02:44:42;;;;;;;1999.90;999.90;;;;;;;21.51;83.46;95115.50;5031757;28;20028;-73
2022/08/27 02:47:07;;;;;;;1999.90;999.90;;;;;;;21.43;83.29;95111.16;5030572;28;20029;-72
2022/08/27 02:49:33;;;;;;;1999.90;999.90;;;;;;;21.24;83.12;95071.56;5030154;28;20437;-73
2022/08/27 02:51:58;;;;;;;1999.90;999.90;;;;;;;21.46;83.45;95090.72;5031690;28;20029;-72
2022/08/27 02:54:25;;;;;;;1999.90;999.90;;;;;;;21.66;83.33;95119.09;5031492;28;20017;-72
2022/08/27 02:56:56;;;;;;;1999.90;999.90;;;;;;;21.59;83.52;95088.47;5030118;28;20038;-74
2022/08/27 02:59:21;;;;;;;1999.90;999.90;;;;;;;21.60;83.50;95098.16;5030318;28;20047;-73
2022/08/27 03:01:47;;;;;;;1999.90;999.90;;;;;;;21.33;83.18;95055.03;5031478;28;20033;-73
2022/08/27 03:04:13;;;;;;;1999.90;999.90;;;;;;;21.51;83.47;95071.44;5029909;28;20018;-73
2022/08/27 03:06:40;;;;;;;1999.90;999.90;;;;;;;21.68;82.74;95111.38;5031301;28;20207;-72
2022/08/27 03:09:05;;;;;;;1999.90;999.90;;;;;;;21.49;82.73;95085.31;5031345;28;20061;-73
2022/08/27 03:11:32;;;;;;;1999.90;999.90;;;;;;;21.70;83.17;95097.44;5031067;28;20053;-72
2022/08/27 03:13:58;;;;;;;1999.90;999.90;;;;;;;21.57;82.71;95085.38;5029784;28;20032;-72
2022/08/27 03:16:24;;;;;;;1999.90;999.90;;;;;;;20.96;82.85;95036.94;5031164;28;20025;-72
2022/08/27 03:18:50;;;;;;;1999.90;999.90;;;;;;;21.03;82.63;95103.81;5029574;28;20029;-72
2022/08/27 03:21:22;;;;;;;1999.90;999.90;;;;;;;20.81;82.52;95037.16;5031335;28;20033;-72
2022/08/27 03:23:48;;;;;;;1999.90;999.90;;;;;;;21.21;83.33;95085.06;5029312;28;20022;-71
2022/08/27 03:26:13;;;;;;;1999.90;999.90;;;;;;;21.44;83.27;95122.78;5029804;28;20036;-73
2022/08/27 03:28:39;;;;;;;1999.90;999.90;;;;;;;21.48;83.69;95124.34;5029593;28;20025;-72
2022/08/27 03:31:07;;;;;;;1999.90;999.90;;;;;;;20.89;83.03;95061.22;5029618;28;20390;-73
2022/08/27 03:33:36;;;;;;;1999.90;999.90;;;;;;;21.40;83.01;95128.16;5028950;28;20478;-73
2022/08/27 03:36:02;;;;;;;1999.90;999.90;;;;;;;21.10;82.86;95130.94;5030681;28;20057;-73
2022/08/27 03:38:28;;;;;;;1999.90;999.90;;;;;;;21.13;82.97;95134.81;5030910;28;20096;-73
2022/08/27 03:40:53;;;;;;;1999.90;999.90;;;;;;;21.16;83.67;95128.69;5030586;28;20171;-74
2022/08/27 03:43:21;;;;;;;1999.90;999.90;;;;;;;21.02;83.66;95069.81;5030250;28;20030;-74
2022/08/27 03:45:47;;;;;;;1999.90;999.90;;;;;;;21.50;83.43;95130.19;5030385;28;20033;-74
2022/08/27 03:48:13;;;;;;;1999.90;999.90;;;;;;;21.35;82.17;95122.31;5030595;28;20109;-75
2022/08/27 03:50:42;;;;;;;1999.90;999.90;;;;;;;20.98;82.52;95090.63;5029133;28;20495;-74
2022/08/27 03:53:08;;;;;;;1999.90;999.90;;;;;;;21.41;83.49;95121.59;5028762;28;20107;-74
2022/08/27 03:55:33;;;;;;;1999.90;999.90;;;;;;;21.13;82.78;95096.97;5029980;28;20447;-74
2022/08/27 03:57:59;;;;;;;1999.90;999.90;;;;;;;21.42;83.30;95123.16;5029049;28;20025;-74
2022/08/27 04:00:25;;;;;;;1999.90;999.90;;;;;;;21.44;83.89;95117.34;5030215;28;20017;-74
2022/08/27 04:02:51;;;;;;;1999.90;999.90;;;;;;;21.59;83.24;95129.84;5048267;23;20045;-79
2022/08/27 04:05:17;;;;;;;1999.90;999.90;;;;;;;21.53;83.57;95118.59;5051947;28;20021;-79
2022/08/27 04:07:43;;;;;;;1999.90;999.90;;;;;;;21.74;83.53;95130.75;5034127;28;20033;-78
2022/08/27 04:10:10;;;;;;;1999.90;999.90;;;;;;;21.70;83.62;95105.56;5039149;28;20024;-79
2022/08/27 04:12:37;;;;;;;1999.90;999.90;;;;;;;21.91;83.42;95129.34;5014339;28;20112;-79
2022/08/27 04:15:03;;;;;;;1999.90;999.90;;;;;;;21.77;82.92;95119.19;5014075;28;20033;-79
2022/08/27 04:17:29;;;;;;;1999.90;999.90;;;;;;;21.77;82.46;95138.91;5014046;28;20021;-79
2022/08/27 04:19:55;;;;;;;1999.90;999.90;;;;;;;21.51;83.21;95123.63;5031652;28;20025;-80
2022/08/27 04:22:21;;;;;;;1999.90;999.90;;;;;;;21.49;83.15;95127.84;5013376;28;20112;-79
2022/08/27 04:24:46;;;;;;;1999.90;999.90;;;;;;;21.65;84.00;95141.91;5013809;28;20105;-80
2022/08/27 04:27:13;;;;;;;1999.90;999.90;;;;;;;21.59;83.48;95120.97;5014017;28;20442;-80
2022/08/27 04:29:39;;;;;;;1999.90;999.90;;;;;;;21.69;82.94;95139.22;5013493;28;20057;-77
2022/08/27 04:32:05;;;;;;;1999.90;999.90;;;;;;;21.50;83.75;95119.38;5013460;28;20160;-77
2022/08/27 04:34:32;;;;;;;1999.90;999.90;;;;;;;20.82;82.03;95126.00;5013328;28;20025;-77
2022/08/27 04:36:57;;;;;;;1999.90;999.90;;;;;;;21.04;82.92;95137.84;5030980;28;20458;-78
2022/08/27 04:39:25;;;;;;;1999.90;999.90;;;;;;;20.95;83.71;95159.00;5030891;28;20125;-78
2022/08/27 04:41:53;;;;;;;1999.90;999.90;;;;;;;20.87;84.69;95138.41;5030550;28;20472;-77
2022/08/27 04:44:19;;;;;;;1999.90;999.90;;;;;;;20.22;84.32;95126.81;5012947;28;20378;-78
2022/08/27 04:46:46;;;;;;;1999.90;999.90;;;;;;;20.74;83.92;95140.59;5030956;28;20021;-78
2022/08/27 04:49:13;;;;;;;1999.90;999.90;;;;;;;20.43;84.62;95147.91;5013215;28;20478;-78
2022/08/27 04:51:40;;;;;;;1999.90;999.90;;;;;;;19.94;86.23;95132.56;5012943;28;20029;-77
2022/08/27 04:54:06;;;;;;;1999.90;999.90;;;;;;;20.01;87.06;95148.09;5012718;28;20372;-77
2022/08/27 04:56:33;;;;;;;1999.90;999.90;;;;;;;20.03;86.69;95150.44;5012822;28;20347;-78
2022/08/27 04:58:59;;;;;;;1999.90;999.90;;;;;;;20.06;86.80;95139.69;5030646;28;20033;-77
2022/08/27 05:01:27;;;;;;;1999.90;999.90;;;;;;;20.28;85.85;95142.69;5030419;28;20026;-78
2022/08/27 05:03:54;;;;;;;1999.90;999.90;;;;;;;20.59;85.23;95142.34;5030002;28;20037;-77
2022/08/27 05:06:21;;;;;;;1999.90;999.90;;;;;;;20.55;84.88;95143.44;5030778;28;20064;-78
2022/08/27 05:08:47;;;;;;;1999.90;999.90;;;;;;;20.06;85.34;95107.28;5013016;28;20558;-77
2022/08/27 05:11:14;;;;;;;1999.90;999.90;;;;;;;20.93;85.18;95153.16;5012875;28;20394;-78
2022/08/27 05:13:41;;;;;;;1999.90;999.90;;;;;;;21.02;84.58;95096.84;5029907;28;20021;-76
2022/08/27 05:16:10;;;;;;;1999.90;999.90;;;;;;;21.60;84.29;95163.09;5012362;28;20029;-76
2022/08/27 05:18:37;;;;;;;1999.90;999.90;;;;;;;21.64;84.55;95159.28;5012324;28;20164;-79
2022/08/27 05:21:04;;;;;;;1999.90;999.90;;;;;;;21.87;83.84;95155.63;5012360;28;20026;-79
2022/08/27 05:23:29;;;;;;;1999.90;999.90;;;;;;;21.42;83.91;95109.63;5011945;28;20018;-79
2022/08/27 05:25:56;;;;;;;1999.90;999.90;;;;;;;20.84;83.33;95149.97;5012587;28;20037;-78
2022/08/27 05:28:24;;;;;;;1999.90;999.90;;;;;;;21.33;84.58;95143.53;5029868;28;20040;-78
2022/08/27 05:30:51;;;;;;;1999.90;999.90;;;;;;;21.63;84.70;95152.31;5012445;28;20140;-71
2022/08/27 05:33:21;;;;;;;1999.90;999.90;;;;;;;21.75;84.34;95129.59;5029299;28;20036;-76
2022/08/27 05:35:52;;;;;;;1999.90;999.90;;;;;;;21.78;84.01;95116.09;5011991;28;20105;-71
2022/08/27 05:38:19;;;;;;;1999.90;999.90;;;;;;;21.76;83.30;95091.34;5030748;28;20776;-71
2022/08/27 05:40:46;;;;;;;1999.90;999.90;;;;;;;22.16;82.67;95133.00;5030120;28;20422;-70
2022/08/27 05:43:13;;;;;;;1999.90;999.90;;;;;;;22.30;82.55;95141.19;5028735;28;20026;-70
2022/08/27 05:45:40;;;;;;;1999.90;999.90;;;;;;;22.33;82.79;95118.00;5028918;28;20094;-68
2022/08/27 05:48:06;;;;;;;1999.90;999.90;;;;;;;22.27;82.76;95105.97;5029029;28;20029;-73
2022/08/27 05:50:32;;;;;;;1999.90;999.90;;;;;;;22.37;82.55;95107.16;5010493;28;20095;-71
2022/08/27 05:52:58;;;;;;;1999.90;999.90;;;;;;;22.43;81.69;95127.34;5030265;28;20100;-71
2022/08/27 05:55:23;;;;;;;1999.90;999.90;;;;;;;22.41;81.73;95118.81;5032833;28;20064;-74
2022/08/27 05:57:49;;;;;;;1999.90;999.90;;;;;;;22.63;81.88;95135.97;5014953;28;20036;-73
2022/08/27 06:02:58;;;;;;;1999.90;999.90;;;;;;;22.86;81.12;95132.94;5032723;28;20124;-73
2022/08/27 06:05:23;;;;;;;1999.90;999.90;;;;;;;22.98;81.73;95144.25;5014111;28;20120;-74
2022/08/27 06:07:48;;;;;;;1999.90;999.90;;;;;;;22.83;80.98;95118.97;5014871;28;20030;-74
2022/08/27 06:10:14;;;;;;;1999.90;999.90;;;;;;;23.00;80.50;95141.16;5032600;28;20112;-71
2022/08/27 06:12:39;;;;;;;1999.90;999.90;;;;;;;23.04;80.90;95129.16;5032478;28;20071;-70
2022/08/27 06:15:05;;;;;;;1999.90;999.90;;;;;;;23.15;81.46;95125.69;5014629;28;20037;-71
2022/08/27 06:17:30;;;;;;;1999.90;999.90;;;;;;;23.37;81.16;95153.63;5032241;28;20025;-73
2022/08/27 06:19:56;;;;;;;1999.90;999.90;;;;;;;23.39;79.90;95154.00;5031740;28;20034;-74
2022/08/27 06:22:22;;;;;;;1999.90;999.90;;;;;;;23.52;80.98;95157.91;5031812;28;20025;-71
2022/08/27 06:24:47;;;;;;;1999.90;999.90;;;;;;;23.51;80.25;95135.41;5032475;28;20697;-71
2022/08/27 06:27:16;;;;;;;1999.90;999.90;;;;;;;23.72;80.75;95150.97;5032631;28;20028;-71
2022/08/27 06:29:42;;;;;;;1999.90;999.90;;;;;;;23.70;80.61;95136.22;5014373;28;20426;-72
2022/08/27 06:32:08;;;;;;;1999.90;999.90;;;;;;;23.79;79.90;95150.19;5032016;28;20378;-72
2022/08/27 06:34:34;;;;;;;1999.90;999.90;;;;;;;23.75;79.57;95116.81;5013691;28;20029;-71
2022/08/27 06:37:00;;;;;;;1999.90;999.90;;;;;;;23.64;79.73;95116.03;5032275;28;20033;-71
2022/08/27 06:39:26;;;;;;;1999.90;999.90;;;;;;;23.74;79.42;95143.19;5030814;28;20022;-74
2022/08/27 06:41:52;;;;;;;1999.90;999.90;;;;;;;23.57;79.12;95143.94;5032142;28;20025;-74
2022/08/27 06:44:17;;;;;;;1999.90;999.90;;;;;;;23.69;78.69;95151.72;5031763;28;20043;-75
2022/08/27 06:46:43;;;;;;;1999.90;999.90;;;;;;;23.94;79.82;95145.50;5031875;28;20029;-74
2022/08/27 06:49:10;;;;;;;1999.90;999.90;;;;;;;24.16;79.97;95149.78;5030692;28;20501;-71
2022/08/27 06:51:37;;;;;;;1999.90;999.90;;;;;;;24.38;80.58;95156.75;5029330;28;20034;-70
2022/08/27 06:54:07;;;;;;;1999.90;999.90;;;;;;;24.49;79.00;95134.19;5031408;28;20044;-69
2022/08/27 06:56:33;;;;;;;1999.90;999.90;;;;;;;24.53;79.49;95118.63;5031639;28;20470;-69
2022/08/27 06:59:01;;;;;;;1999.90;999.90;;;;;;;24.65;79.07;95101.88;5031602;28;20056;-69
2022/08/27 07:01:31;;;;;;;1999.90;999.90;;;;;;;24.84;77.63;95128.59;5031689;28;20048;-69
2022/08/27 07:03:59;;;;;;;1999.90;999.90;;;;;;;25.13;78.86;95161.94;5030834;28;20084;-69
2022/08/27 07:06:27;;;;;;;1999.90;999.90;;;;;;;24.96;78.25;95134.75;5023290;28;20050;-68
2022/08/27 07:08:53;;;;;;;1999.90;999.90;;;;;;;24.95;77.69;95158.47;5023638;28;20033;-71
2022/08/27 07:11:20;;;;;;;1999.90;999.90;;;;;;;24.62;77.13;95135.31;5019517;28;20028;-69
2022/08/27 07:13:47;;;;;;;1999.90;999.90;;;;;;;24.40;78.08;95107.41;5030752;28;20474;-72
2022/08/27 07:16:15;;;;;;;1999.90;999.90;;;;;;;24.55;79.14;95125.22;5031130;28;20025;-71
2022/08/27 07:18:41;;;;;;;1999.90;999.90;;;;;;;24.11;77.43;95103.97;5031339;28;20493;-70
2022/08/27 07:21:08;;;;;;;1999.90;999.90;;;;;;;24.42;77.34;95142.38;5030602;28;20034;-71
2022/08/27 07:23:34;;;;;;;1999.90;999.90;;;;;;;24.11;78.59;95123.78;5030907;28;20030;-70
2022/08/27 07:26:00;;;;;;;1999.90;999.90;;;;;;;24.41;79.14;95171.47;5031332;28;20489;-69
2022/08/27 07:28:27;;;;;;;1999.90;999.90;;;;;;;24.38;79.24;95170.34;5029330;28;20029;-69
2022/08/27 07:30:53;;;;;;;1999.90;999.90;;;;;;;24.28;78.54;95167.59;5019808;28;20096;-69
2022/08/27 07:33:19;;;;;;;1999.90;999.90;;;;;;;24.29;77.41;95171.88;5030832;28;20117;-69
2022/08/27 07:35:45;;;;;;;1999.90;999.90;;;;;;;24.36;79.75;95171.88;5021813;28;20026;-69
2022/08/27 07:38:12;;;;;;;1999.90;999.90;;;;;;;24.33;79.09;95164.50;5030617;28;20466;-72
2022/08/27 07:40:38;;;;;;;1999.90;999.90;;;;;;;24.55;79.28;95182.31;5031282;28;20466;-77
2022/08/27 07:45:54;;;;;;;1999.90;999.90;;;;;;;24.93;78.60;95177.16;5031691;28;20112;-76
2022/08/27 07:48:25;;;;;;;1999.90;999.90;;;;;;;25.03;77.77;95167.38;5013223;28;20112;-73
2022/08/27 07:50:51;;;;;;;1999.90;999.90;;;;;;;25.31;77.03;95189.03;5014879;28;20117;-76
2022/08/27 07:53:18;;;;;;;1999.90;999.90;;;;;;;25.22;75.55;95152.53;5029354;28;20025;-75
2022/08/27 07:55:44;;;;;;;1999.90;999.90;;;;;;;25.34;77.19;95154.81;5029149;28;20029;-76
2022/08/27 07:58:10;;;;;;;1999.90;999.90;;;;;;;25.35;77.21;95157.13;5031092;28;20056;-75
2022/08/27 08:00:36;;;;;;;1999.90;999.90;;;;;;;25.41;77.74;95163.69;5029652;28;20418;-75
2022/08/27 08:03:01;;;;;;;1999.90;999.90;;;;;;;25.05;76.12;95135.88;5030518;28;20025;-75
2022/08/27 08:05:27;;;;;;;1999.90;999.90;;;;;;;24.92;75.67;95177.53;5028601;28;20025;-76
2022/08/27 08:07:52;;;;;;;1999.90;999.90;;;;;;;24.71;76.41;95183.84;5013231;28;20021;-78
2022/08/27 08:10:21;;;;;;;1999.90;999.90;;;;;;;24.75;78.08;95201.69;5013221;28;20029;-78
2022/08/27 08:12:47;;;;;;;1999.90;999.90;;;;;;;24.36;78.46;95148.22;5012900;28;20021;-78
2022/08/27 08:15:16;;;;;;;1999.90;999.90;;;;;;;24.47;78.62;95199.06;5012228;28;20035;-78
2022/08/27 08:17:41;;;;;;;1999.90;999.90;;;;;;;24.37;78.79;95206.06;5013170;28;20022;-79
2022/08/27 08:20:08;;;;;;;1999.90;999.90;;;;;;;24.32;79.25;95204.50;5030866;28;20091;-78
2022/08/27 08:22:34;;;;;;;1999.90;999.90;;;;;;;24.30;80.07;95208.75;5029752;28;20044;-75
2022/08/27 08:24:59;;;;;;;1999.90;999.90;;;;;;;24.40;79.83;95204.50;5030995;28;20834;-79
2022/08/27 08:27:25;;;;;;;1999.90;999.90;;;;;;;24.25;80.06;95188.19;5013146;28;20025;-78
2022/08/27 08:29:50;;;;;;;1999.90;999.90;;;;;;;24.44;79.94;95208.00;5030677;28;20018;-78
2022/08/27 08:32:16;;;;;;;1999.90;999.90;;;;;;;24.34;80.08;95191.28;5030405;28;20541;-76
2022/08/27 08:34:43;;;;;;;1999.90;999.90;;;;;;;24.22;78.94;95193.63;5013041;28;20069;-76
2022/08/27 08:37:09;;;;;;;1999.90;999.90;;;;;;;24.26;78.71;95216.94;5021918;28;20076;-79
2022/08/27 08:39:36;;;;;;;1999.90;999.90;;;;;;;24.34;79.04;95204.88;5029116;28;20385;-76
2022/08/27 08:42:03;;;;;;;1999.90;999.90;;;;;;;24.36;78.99;95197.16;5029531;28;20095;-77
2022/08/27 08:44:37;;;;;;;1999.90;999.90;;;;;;;24.48;79.19;95201.38;5030813;28;20072;-76
2022/08/27 08:47:22;;;;;;;1999.90;999.90;;;;;;;24.62;79.45;95193.19;5030568;28;20037;-77
2022/08/27 08:49:59;;;;;;;1999.90;999.90;;;;;;;24.77;78.65;95209.47;5030380;28;20120;-76
2022/08/27 08:52:33;;;;;;;1999.90;999.90;;;;;;;24.70;78.34;95209.50;5017638;28;20026;-75
2022/08/27 08:55:09;;;;;;;1999.90;999.90;;;;;;;24.52;77.83;95213.03;5013020;28;20022;-75
2022/08/27 08:57:42;;;;;;;1999.90;999.90;;;;;;;22.77;72.38;95207.25;5030367;28;20076;-76
2022/08/27 09:00:11;;;;;;;1999.90;999.90;;;;;;;23.38;78.85;95212.16;5030591;28;20505;-76
2022/08/27 09:02:37;;;;;;;1999.90;999.90;;;;;;;23.39;79.72;95160.22;5012457;28;20513;-77
2022/08/27 09:05:06;;;;;;;1999.90;999.90;;;;;;;23.46;78.25;95173.81;5012807;28;20032;-75
2022/08/27 09:07:43;;;;;;;1999.90;999.90;;;;;;;24.24;79.13;95208.38;4998309;28;20045;-76
2022/08/27 09:10:18;;;;;;;1999.90;999.90;;;;;;;22.51;76.72;95189.31;5010714;28;20037;-77
2022/08/27 09:12:44;;;;;;;1999.90;999.90;;;;;;;23.21;78.21;95203.59;4992884;28;20648;-85
2022/08/27 09:15:16;;;;;;;1999.90;999.90;;;;;;;24.03;78.69;95181.22;4993268;28;20080;-76
2022/08/27 09:17:43;;;;;;;;;;;;;;;24.82;78.76;95207.09;5010656;28;20129;-75
2022/08/27 09:20:09;;;;;;;1999.90;999.90;;;;;;;24.97;77.27;95177.13;4993115;28;19959;-76
2022/08/27 09:23:37;;;;;;;1999.90;999.90;;;;;;;25.42;76.96;95202.59;5005360;28;20073;-82
2022/08/27 09:26:02;;;;;;;1999.90;999.90;;;;;;;25.53;76.67;95206.03;4948122;29;20457;-76
2022/08/27 09:31:16;;;;;;;1999.90;999.90;;;;;;;25.18;75.33;95212.44;5044800;28;20036;-79
2022/08/27 09:33:41;;;;;;;1999.90;999.90;;;;;;;25.26;76.58;95211.25;5016878;28;20489;-82
2022/08/27 09:36:14;;;;;;;1999.90;999.90;;;;;;;24.97;76.14;95215.22;5034129;28;20124;-73
2022/08/27 09:38:51;;;;;;;1999.90;999.90;;;;;;;24.67;75.90;95213.78;5017127;28;20058;-79
2022/08/27 09:41:22;;;;;;;1999.90;999.90;;;;;;;24.56;76.56;95204.84;5033476;28;20100;-74
2022/08/27 09:43:55;;;;;;;;;;;;;;;24.90;76.95;95216.03;5033756;28;20017;-75
2022/08/27 09:46:24;;;;;;;1999.90;999.90;;;;;;;23.85;74.80;95217.31;5033818;28;19967;-75
2022/08/27 09:48:49;;;;;;;1999.90;999.90;;;;;;;24.10;77.53;95213.81;5016200;28;20025;-69
2022/08/27 09:51:26;;;;;;;1999.90;999.90;;;;;;;24.21;76.97;95206.47;5015417;28;20021;-68
2022/08/27 09:53:51;;;;;;;1999.90;999.90;;;;;;;23.38;76.49;95209.44;5015646;28;20032;-68
2022/08/27 09:56:27;;;;;;;1999.90;999.90;;;;;;;23.53;77.05;95203.66;5015857;28;20033;-69
2022/08/27 09:59:01;;;;;;;1999.90;999.90;;;;;;;22.89;77.48;95200.78;5033825;28;20299;-69
2022/08/27 10:01:30;;;;;;;1999.90;999.90;;;;;;;23.15;75.59;95197.00;5015942;28;20053;-69
2022/08/27 10:04:14;;;;;;;1999.90;999.90;;;;;;;22.39;76.84;95195.06;5015134;28;20091;-70
2022/08/27 10:06:48;;;;;;;1999.90;999.90;;;;;;;23.50;73.95;95193.59;5015141;28;20914;-75
2022/08/27 10:09:19;;;;;;;1999.90;999.90;;;;;;;23.46;74.45;95192.03;5015977;28;20034;-79
2022/08/27 10:12:31;;;;;;;1999.90;999.90;;;;;;;23.67;73.04;95194.81;5034566;28;20022;-78
2022/08/27 10:14:58;;;;;;;1999.90;999.90;;;;;;;23.32;72.69;95193.53;4973141;28;20260;-76
2022/08/27 10:17:26;;;;;;;1999.90;999.90;;;;;;;23.73;72.23;95192.47;4956606;28;20058;-78
2022/08/27 10:20:17;;;;;;;1999.90;999.90;;;;;;;24.68;73.29;95193.56;4992279;28;20037;-76
2022/08/27 10:23:04;;;;;;;1999.90;999.90;;;;;;;24.23;72.16;95190.53;5033011;28;20029;-77
2022/08/27 10:25:57;;;;;;;1999.90;999.90;;;;;;;25.66;75.21;95195.44;5032459;28;20755;-75
2022/08/27 10:28:35;;;;;;;1999.90;999.90;;;;;;;26.10;72.69;95186.59;5033590;28;20060;-79
2022/08/27 10:31:16;;;;;;;1999.90;999.90;;;;;;;26.96;74.32;95186.47;5016079;28;20108;-79
2022/08/27 10:34:00;;;;;;;1999.90;999.90;;;;;;;26.16;66.53;95190.41;5033096;28;20030;-78
2022/08/27 10:36:47;;;;;;;1999.90;999.90;;;;;;;24.01;61.40;95184.34;5033464;28;20025;-79
2022/08/27 10:39:54;;;;;;;1999.90;999.90;;;;;;;24.79;70.75;95191.59;5016201;28;20501;-83
2022/08/27 10:42:28;;;;;;;1999.90;999.90;;;;;;;24.74;67.18;95188.50;4934269;29;20036;-79
2022/08/27 10:45:06;;;;;;;1999.90;999.90;;;;;;;25.23;60.19;95186.75;5002031;28;20053;-80
2022/08/27 10:47:53;;;;;;;1999.90;999.90;;;;;;;26.04;56.11;95182.72;5013896;28;20030;-83
2022/08/27 10:52:52;;;;;;;1999.90;999.90;;;;;;;24.59;65.61;95166.78;5004096;28;20149;-71
2022/08/27 10:55:23;;;;;;;1999.90;999.90;;;;;;;24.86;62.84;95182.63;4990376;28;20084;-70
2022/08/27 10:58:21;;;;;;;1999.90;999.90;;;;;;;25.11;66.91;95152.59;4994382;28;20374;-68
2022/08/27 11:00:59;;;;;;;1999.90;999.90;;;;;;;24.34;61.17;95164.09;4994541;28;20034;-68
2022/08/27 11:03:48;;;;;;;1999.90;999.90;;;;;;;23.68;62.80;95171.91;5011462;28;20029;-70
2022/08/27 11:06:29;;;;;;;1999.90;999.90;;;;;;;23.18;62.25;95117.53;4998548;28;20033;-69
2022/08/27 11:09:18;;;;;;;1999.90;999.90;;;;;;;25.15;70.71;95156.09;5010697;28;20497;-69
2022/08/27 11:11:52;;;;;;;1999.90;999.90;;;;;;;25.30;68.23;95165.72;5011891;28;20034;-76
2022/08/27 11:14:36;;;;;;;1999.90;999.90;;;;;;;24.72;63.32;95158.97;5011499;28;20030;-75